sensor_id;sensor_type;location;lat;lon;timestamp;pressure;altitude;pressure_sealevel;temperature;humidity
22311;BME280;11323;49.610;11.016;2023-05-22T00:03:43;97841.06;;;19.62;57.63
22311;BME280;11323;49.610;11.016;2023-05-22T00:08:43;97832.50;;;19.59;58.04
22311;BME280;11323;49.610;11.016;2023-05-22T00:13:44;97836.78;;;19.60;57.97
22311;BME280;11323;49.610;11.016;2023-05-22T00:18:44;97829.44;;;19.69;57.95
22311;BME280;11323;49.610;11.016;2023-05-22T00:23:44;97828.63;;;19.69;57.22
22311;BME280;11323;49.610;11.016;2023-05-22T00:28:45;97822.28;;;19.76;57.51
22311;BME280;11323;49.610;11.016;2023-05-22T00:33:45;97817.63;;;19.72;57.26
22311;BME280;11323;49.610;11.016;2023-05-22T00:38:46;97819.25;;;19.73;57.68
22311;BME280;11323;49.610;11.016;2023-05-22T00:43:47;97817.72;;;19.52;57.71
22311;BME280;11323;49.610;11.016;2023-05-22T00:48:50;97812.41;;;19.58;57.74
22311;BME280;11323;49.610;11.016;2023-05-22T00:53:52;97817.97;;;19.37;57.89
22311;BME280;11323;49.610;11.016;2023-05-22T00:58:53;97810.88;;;19.31;58.27
22311;BME280;11323;49.610;11.016;2023-05-22T01:03:54;97813.78;;;19.22;58.29
22311;BME280;11323;49.610;11.016;2023-05-22T01:08:54;97814.81;;;19.14;58.38
22311;BME280;11323;49.610;11.016;2023-05-22T01:29:44;97827.44;;;18.86;58.71
22311;BME280;11323;49.610;11.016;2023-05-22T01:34:46;97832.28;;;18.89;59.08
22311;BME280;11323;49.610;11.016;2023-05-22T01:39:51;97830.09;;;18.79;58.95
22311;BME280;11323;49.610;11.016;2023-05-22T01:44:52;97827.44;;;18.79;59.00
22311;BME280;11323;49.610;11.016;2023-05-22T01:49:52;97820.31;;;18.73;58.87
22311;BME280;11323;49.610;11.016;2023-05-22T01:55:17;97817.91;;;18.78;58.40
22311;BME280;11323;49.610;11.016;2023-05-22T02:00:21;97817.28;;;18.69;58.90
22311;BME280;11323;49.610;11.016;2023-05-22T02:05:25;97820.31;;;18.59;59.28
22311;BME280;11323;49.610;11.016;2023-05-22T02:10:28;97819.31;;;18.74;58.93
22311;BME280;11323;49.610;11.016;2023-05-22T02:15:30;97819.91;;;18.76;58.55
22311;BME280;11323;49.610;11.016;2023-05-22T02:20:32;97817.06;;;18.84;58.69
22311;BME280;11323;49.610;11.016;2023-05-22T02:25:33;97811.59;;;18.86;58.65
22311;BME280;11323;49.610;11.016;2023-05-22T02:30:33;97810.59;;;18.60;59.12
22311;BME280;11323;49.610;11.016;2023-05-22T02:35:34;97806.34;;;18.52;59.24
22311;BME280;11323;49.610;11.016;2023-05-22T02:40:34;97805.72;;;18.36;59.49
22311;BME280;11323;49.610;11.016;2023-05-22T02:45:35;97808.56;;;18.28;59.86
22311;BME280;11323;49.610;11.016;2023-05-22T02:50:35;97804.91;;;18.29;59.74
22311;BME280;11323;49.610;11.016;2023-05-22T02:55:36;97809.78;;;18.32;59.49
22311;BME280;11323;49.610;11.016;2023-05-22T03:00:37;97805.31;;;18.19;59.76
22311;BME280;11323;49.610;11.016;2023-05-22T03:05:37;97811.59;;;18.18;59.68
22311;BME280;11323;49.610;11.016;2023-05-22T03:10:41;97812.81;;;18.16;59.49
22311;BME280;11323;49.610;11.016;2023-05-22T03:15:42;97820.31;;;18.19;59.73
22311;BME280;11323;49.610;11.016;2023-05-22T03:20:47;97813.41;;;18.11;59.76
22311;BME280;11323;49.610;11.016;2023-05-22T03:25:47;97811.59;;;18.12;59.59
22311;BME280;11323;49.610;11.016;2023-05-22T03:30:48;97814.81;;;18.14;59.64
22311;BME280;11323;49.610;11.016;2023-05-22T03:35:54;97822.34;;;18.10;60.11
22311;BME280;11323;49.610;11.016;2023-05-22T03:40:55;97817.03;;;18.03;59.41
22311;BME280;11323;49.610;11.016;2023-05-22T03:45:55;97807.94;;;17.99;60.01
22311;BME280;11323;49.610;11.016;2023-05-22T03:50:58;97808.25;;;17.83;60.20
22311;BME280;11323;49.610;11.016;2023-05-22T03:55:59;97814.97;;;17.92;60.38
22311;BME280;11323;49.610;11.016;2023-05-22T04:00:59;97812.59;;;17.97;59.93
22311;BME280;11323;49.610;11.016;2023-05-22T04:06:00;97814.97;;;17.92;60.00
22311;BME280;11323;49.610;11.016;2023-05-22T04:11:01;97828.81;;;18.01;60.27
22311;BME280;11323;49.610;11.016;2023-05-22T04:16:02;97827.41;;;17.98;60.11
22311;BME280;11323;49.610;11.016;2023-05-22T04:21:03;97824.34;;;18.01;60.30
22311;BME280;11323;49.610;11.016;2023-05-22T04:26:07;97833.28;;;18.00;60.67
22311;BME280;11323;49.610;11.016;2023-05-22T04:31:07;97834.50;;;18.04;60.18
22311;BME280;11323;49.610;11.016;2023-05-22T04:36:09;97841.00;;;18.09;60.40
22311;BME280;11323;49.610;11.016;2023-05-22T04:41:10;97843.84;;;18.14;59.86
22311;BME280;11323;49.610;11.016;2023-05-22T04:46:13;97847.31;;;18.21;60.14
22311;BME280;11323;49.610;11.016;2023-05-22T04:51:14;97839.41;;;18.28;60.03
22311;BME280;11323;49.610;11.016;2023-05-22T04:56:15;97841.84;;;18.23;60.69
22311;BME280;11323;49.610;11.016;2023-05-22T05:01:15;97839.81;;;18.25;60.71
22311;BME280;11323;49.610;11.016;2023-05-22T05:06:16;97843.25;;;18.25;60.72
22311;BME280;11323;49.610;11.016;2023-05-22T05:11:17;97845.69;;;18.47;60.08
22311;BME280;11323;49.610;11.016;2023-05-22T05:16:17;97841.03;;;18.76;59.42
22311;BME280;11323;49.610;11.016;2023-05-22T05:21:19;97842.84;;;19.09;58.49
22311;BME280;11323;49.610;11.016;2023-05-22T05:26:20;97832.25;;;19.29;58.01
22311;BME280;11323;49.610;11.016;2023-05-22T05:31:23;97833.41;;;19.40;58.09
22311;BME280;11323;49.610;11.016;2023-05-22T05:36:43;97846.66;;;19.20;57.24
22311;BME280;11323;49.610;11.016;2023-05-22T05:41:43;97859.47;;;19.23;57.23
22311;BME280;11323;49.610;11.016;2023-05-22T05:46:44;97849.53;;;19.11;57.32
22311;BME280;11323;49.610;11.016;2023-05-22T05:51:46;97854.78;;;19.32;56.96
22311;BME280;11323;49.610;11.016;2023-05-22T05:56:48;97853.09;;;19.57;56.53
22311;BME280;11323;49.610;11.016;2023-05-22T06:01:49;97851.41;;;19.70;56.60
22311;BME280;11323;49.610;11.016;2023-05-22T06:06:56;97852.97;;;19.78;56.77
22311;BME280;11323;49.610;11.016;2023-05-22T06:12:06;97850.31;;;19.84;56.43
22311;BME280;11323;49.610;11.016;2023-05-22T06:17:06;97846.25;;;19.88;56.77
22311;BME280;11323;49.610;11.016;2023-05-22T06:22:12;97854.56;;;19.92;56.67
22311;BME280;11323;49.610;11.016;2023-05-22T06:27:16;97849.66;;;19.96;57.12
22311;BME280;11323;49.610;11.016;2023-05-22T06:32:17;97842.34;;;19.98;57.29
22311;BME280;11323;49.610;11.016;2023-05-22T06:37:19;97838.44;;;20.00;57.42
22311;BME280;11323;49.610;11.016;2023-05-22T06:42:21;97836.63;;;20.01;57.68
22311;BME280;11323;49.610;11.016;2023-05-22T06:47:54;97842.31;;;20.04;57.79
22311;BME280;11323;49.610;11.016;2023-05-22T06:52:55;97834.97;;;20.06;57.55
22311;BME280;11323;49.610;11.016;2023-05-22T06:57:56;97841.88;;;20.08;58.32
22311;BME280;11323;49.610;11.016;2023-05-22T07:02:57;97842.69;;;20.08;58.04
22311;BME280;11323;49.610;11.016;2023-05-22T07:08:03;97837.00;;;20.04;57.94
22311;BME280;11323;49.610;11.016;2023-05-22T07:13:04;97843.69;;;20.07;57.79
22311;BME280;11323;49.610;11.016;2023-05-22T07:18:06;97843.50;;;20.09;57.71
22311;BME280;11323;49.610;11.016;2023-05-22T07:23:08;97846.94;;;20.09;57.61
22311;BME280;11323;49.610;11.016;2023-05-22T07:28:11;97841.44;;;20.11;57.74
22311;BME280;11323;49.610;11.016;2023-05-22T07:33:22;97849.19;;;20.12;57.32
22311;BME280;11323;49.610;11.016;2023-05-22T07:38:22;97842.88;;;20.13;57.93
22311;BME280;11323;49.610;11.016;2023-05-22T07:43:30;97840.22;;;20.13;57.81
22311;BME280;11323;49.610;11.016;2023-05-22T07:48:32;97842.88;;;20.13;57.95
22311;BME280;11323;49.610;11.016;2023-05-22T07:53:33;97845.06;;;20.16;57.57
22311;BME280;11323;49.610;11.016;2023-05-22T07:58:36;97841.41;;;20.17;57.54
22311;BME280;11323;49.610;11.016;2023-05-22T08:03:39;97838.16;;;20.15;57.35
22311;BME280;11323;49.610;11.016;2023-05-22T08:08:40;97845.47;;;20.20;57.37
22311;BME280;11323;49.610;11.016;2023-05-22T08:13:40;97840.97;;;20.20;57.25
22311;BME280;11323;49.610;11.016;2023-05-22T08:18:41;97835.69;;;20.20;57.29
22311;BME280;11323;49.610;11.016;2023-05-22T08:23:41;97838.94;;;20.23;57.75
22311;BME280;11323;49.610;11.016;2023-05-22T08:28:41;97838.94;;;20.23;57.46
22311;BME280;11323;49.610;11.016;2023-05-22T08:33:43;97845.84;;;20.24;57.52
22311;BME280;11323;49.610;11.016;2023-05-22T08:38:43;97840.56;;;20.24;57.31
22311;BME280;11323;49.610;11.016;2023-05-22T08:43:44;97829.97;;;20.24;57.62
22311;BME280;11323;49.610;11.016;2023-05-22T08:48:44;97833.41;;;20.24;57.40
22311;BME280;11323;49.610;11.016;2023-05-22T08:53:48;97825.47;;;20.24;57.83
22311;BME280;11323;49.610;11.016;2023-05-22T08:58:51;97822.22;;;20.22;57.49
22311;BME280;11323;49.610;11.016;2023-05-22T09:03:51;97820.19;;;20.24;57.52
22311;BME280;11323;49.610;11.016;2023-05-22T09:08:52;97826.09;;;20.26;57.82
22311;BME280;11323;49.610;11.016;2023-05-22T09:14:05;97818.16;;;20.26;57.19
22311;BME280;11323;49.610;11.016;2023-05-22T09:19:06;97813.66;;;20.27;57.65
22311;BME280;11323;49.610;11.016;2023-05-22T09:24:07;97813.44;;;20.28;57.55
22311;BME280;11323;49.610;11.016;2023-05-22T09:29:09;97813.22;;;20.30;57.62
22311;BME280;11323;49.610;11.016;2023-05-22T09:34:10;97809.56;;;20.31;57.54
22311;BME280;11323;49.610;11.016;2023-05-22T09:39:13;97808.75;;;20.30;57.14
22311;BME280;11323;49.610;11.016;2023-05-22T09:44:14;97798.97;;;20.31;57.96
22311;BME280;11323;49.610;11.016;2023-05-22T09:49:15;97799.78;;;20.31;57.54
22311;BME280;11323;49.610;11.016;2023-05-22T09:54:15;97793.69;;;20.31;57.75
22311;BME280;11323;49.610;11.016;2023-05-22T09:59:21;97796.31;;;20.31;57.88
22311;BME280;11323;49.610;11.016;2023-05-22T10:04:26;97790.00;;;20.32;57.96
22311;BME280;11323;49.610;11.016;2023-05-22T10:09:30;97790.00;;;20.32;57.99
22311;BME280;11323;49.610;11.016;2023-05-22T10:14:35;97777.56;;;20.32;57.71
22311;BME280;11323;49.610;11.016;2023-05-22T10:19:36;97775.75;;;20.33;58.04
22311;BME280;11323;49.610;11.016;2023-05-22T10:24:38;97780.22;;;20.32;58.02
22311;BME280;11323;49.610;11.016;2023-05-22T10:30:45;97773.91;;;20.33;57.97
22311;BME280;11323;49.610;11.016;2023-05-22T10:36:02;97769.44;;;20.34;58.02
22311;BME280;11323;49.610;11.016;2023-05-22T10:41:04;97765.78;;;20.35;57.91
22311;BME280;11323;49.610;11.016;2023-05-22T10:46:06;97764.75;;;20.36;57.99
22311;BME280;11323;49.610;11.016;2023-05-22T10:51:06;97768.78;;;20.39;57.99
22311;BME280;11323;49.610;11.016;2023-05-22T10:56:31;97759.00;;;20.39;58.30
22311;BME280;11323;49.610;11.016;2023-05-22T11:01:32;97760.63;;;20.40;58.19
22311;BME280;11323;49.610;11.016;2023-05-22T11:07:02;97767.53;;;20.41;57.79
22311;BME280;11323;49.610;11.016;2023-05-22T11:12:26;97760.19;;;20.43;58.22
22311;BME280;11323;49.610;11.016;2023-05-22T11:22:43;97742.03;;;20.47;58.30
22311;BME280;11323;49.610;11.016;2023-05-22T11:27:48;97753.00;;;20.50;58.24
22311;BME280;11323;49.610;11.016;2023-05-22T11:32:49;97741.38;;;20.51;58.38
22311;BME280;11323;49.610;11.016;2023-05-22T11:37:50;97734.03;;;20.53;58.38
22311;BME280;11323;49.610;11.016;2023-05-22T11:42:52;97733.59;;;20.57;58.75
22311;BME280;11323;49.610;11.016;2023-05-22T11:47:52;97733.75;;;20.62;58.92
22311;BME280;11323;49.610;11.016;2023-05-22T11:52:53;97723.31;;;20.67;60.17
22311;BME280;11323;49.610;11.016;2023-05-22T11:57:55;97720.81;;;20.72;60.11
22311;BME280;11323;49.610;11.016;2023-05-22T12:02:55;97720.59;;;20.74;60.09
22311;BME280;11323;49.610;11.016;2023-05-22T12:07:56;97715.47;;;20.79;59.73
22311;BME280;11323;49.610;11.016;2023-05-22T12:12:56;97715.84;;;20.82;60.17
22311;BME280;11323;49.610;11.016;2023-05-22T12:17:56;97712.53;;;20.87;59.82
22311;BME280;11323;49.610;11.016;2023-05-22T12:22:58;97707.59;;;20.91;60.42
22311;BME280;11323;49.610;11.016;2023-05-22T12:27:58;97716.16;;;20.93;60.00
22311;BME280;11323;49.610;11.016;2023-05-22T12:32:59;97707.19;;;20.94;59.72
22311;BME280;11323;49.610;11.016;2023-05-22T12:37:59;97704.53;;;20.94;59.76
22311;BME280;11323;49.610;11.016;2023-05-22T12:43:00;97700.63;;;20.96;59.88
22311;BME280;11323;49.610;11.016;2023-05-22T12:48:00;97703.03;;;20.98;59.46
22311;BME280;11323;49.610;11.016;2023-05-22T12:53:01;97699.34;;;20.99;59.99
22311;BME280;11323;49.610;11.016;2023-05-22T12:58:01;97690.38;;;21.00;59.93
22311;BME280;11323;49.610;11.016;2023-05-22T13:03:02;97691.75;;;21.03;59.47
22311;BME280;11323;49.610;11.016;2023-05-22T13:08:03;97680.13;;;21.04;60.09
22311;BME280;11323;49.610;11.016;2023-05-22T13:13:03;97682.34;;;21.07;59.72
22311;BME280;11323;49.610;11.016;2023-05-22T13:18:04;97676.03;;;21.08;59.71
22311;BME280;11323;49.610;11.016;2023-05-22T13:23:04;97675.59;;;21.11;59.54
22311;BME280;11323;49.610;11.016;2023-05-22T13:28:05;97680.66;;;21.12;59.31
22311;BME280;11323;49.610;11.016;2023-05-22T13:33:06;97673.28;;;21.14;59.66
22311;BME280;11323;49.610;11.016;2023-05-22T13:38:06;97670.63;;;21.14;59.60
22311;BME280;11323;49.610;11.016;2023-05-22T13:43:07;97671.78;;;21.19;59.33
22311;BME280;11323;49.610;11.016;2023-05-22T13:48:07;97661.44;;;21.17;59.66
22311;BME280;11323;49.610;11.016;2023-05-22T13:53:08;97669.72;;;21.21;59.30
22311;BME280;11323;49.610;11.016;2023-05-22T13:58:08;97660.75;;;21.22;59.96
22311;BME280;11323;49.610;11.016;2023-05-22T14:03:08;97656.03;;;21.24;59.86
22311;BME280;11323;49.610;11.016;2023-05-22T14:08:10;97655.00;;;21.25;59.70
22311;BME280;11323;49.610;11.016;2023-05-22T14:13:11;97662.72;;;21.26;59.52
22311;BME280;11323;49.610;11.016;2023-05-22T14:18:12;97654.53;;;21.28;59.53
22311;BME280;11323;49.610;11.016;2023-05-22T14:23:14;97644.75;;;21.28;59.74
22311;BME280;11323;49.610;11.016;2023-05-22T14:28:14;97648.78;;;21.31;59.97
22311;BME280;11323;49.610;11.016;2023-05-22T14:33:15;97647.53;;;21.34;59.71
22311;BME280;11323;49.610;11.016;2023-05-22T14:38:15;97642.03;;;21.35;59.80
22311;BME280;11323;49.610;11.016;2023-05-22T14:43:16;97646.06;;;21.38;60.04
22311;BME280;11323;49.610;11.016;2023-05-22T14:48:16;97648.47;;;21.39;59.73
22311;BME280;11323;49.610;11.016;2023-05-22T14:53:16;97646.41;;;21.41;59.73
22311;BME280;11323;49.610;11.016;2023-05-22T14:58:17;97645.16;;;21.44;59.90
22311;BME280;11323;49.610;11.016;2023-05-22T15:03:17;97644.09;;;21.45;59.90
22311;BME280;11323;49.610;11.016;2023-05-22T15:08:18;97630.63;;;21.47;59.63
22311;BME280;11323;49.610;11.016;2023-05-22T15:13:18;97622.78;;;21.52;60.34
22311;BME280;11323;49.610;11.016;2023-05-22T15:18:20;97621.56;;;21.54;60.16
22311;BME280;11323;49.610;11.016;2023-05-22T15:23:20;97615.22;;;21.55;60.12
22311;BME280;11323;49.610;11.016;2023-05-22T15:28:24;97606.00;;;21.58;60.13
22311;BME280;11323;49.610;11.016;2023-05-22T15:33:24;97602.09;;;21.60;60.00
22311;BME280;11323;49.610;11.016;2023-05-22T15:38:25;97587.56;;;21.63;60.08
22311;BME280;11323;49.610;11.016;2023-05-22T15:43:25;97581.00;;;21.66;60.12
22311;BME280;11323;49.610;11.016;2023-05-22T15:48:27;97591.97;;;21.69;59.85
22311;BME280;11323;49.610;11.016;2023-05-22T15:53:27;97592.31;;;21.73;60.00
22311;BME280;11323;49.610;11.016;2023-05-22T15:58:27;97591.03;;;21.75;60.24
22311;BME280;11323;49.610;11.016;2023-05-22T16:03:29;97595.88;;;21.79;60.06
22311;BME280;11323;49.610;11.016;2023-05-22T16:08:29;97597.50;;;21.80;60.05
22311;BME280;11323;49.610;11.016;2023-05-22T16:13:30;97596.03;;;21.84;59.84
22311;BME280;11323;49.610;11.016;2023-05-22T16:18:30;97603.50;;;21.87;60.35
22311;BME280;11323;49.610;11.016;2023-05-22T16:23:31;97609.97;;;21.91;60.58
22311;BME280;11323;49.610;11.016;2023-05-22T16:28:31;97604.19;;;21.94;60.85
22311;BME280;11323;49.610;11.016;2023-05-22T16:33:31;97602.09;;;21.96;60.91
22311;BME280;11323;49.610;11.016;2023-05-22T16:38:35;97605.13;;;22.00;61.06
22311;BME280;11323;49.610;11.016;2023-05-22T16:43:35;97596.69;;;22.03;61.15
22311;BME280;11323;49.610;11.016;2023-05-22T16:48:37;97591.75;;;22.06;60.94
22311;BME280;11323;49.610;11.016;2023-05-22T16:53:39;97593.91;;;22.10;60.71
22311;BME280;11323;49.610;11.016;2023-05-22T16:58:40;97605.69;;;22.14;60.53
22311;BME280;11323;49.610;11.016;2023-05-22T17:03:40;97605.22;;;22.17;60.67
22311;BME280;11323;49.610;11.016;2023-05-22T17:08:41;97600.47;;;22.19;60.50
22311;BME280;11323;49.610;11.016;2023-05-22T17:13:41;97598.41;;;22.21;60.42
22311;BME280;11323;49.610;11.016;2023-05-22T17:18:41;97596.31;;;22.23;60.63
22311;BME280;11323;49.610;11.016;2023-05-22T17:23:42;97597.94;;;22.24;60.78
22311;BME280;11323;49.610;11.016;2023-05-22T17:28:42;97608.31;;;22.26;60.66
22311;BME280;11323;49.610;11.016;2023-05-22T17:33:43;97596.31;;;22.23;60.74
22311;BME280;11323;49.610;11.016;2023-05-22T17:38:44;97605.44;;;22.27;60.75
22311;BME280;11323;49.610;11.016;2023-05-22T17:43:44;97607.84;;;22.29;61.14
22311;BME280;11323;49.610;11.016;2023-05-22T17:48:45;97602.31;;;22.30;60.81
22311;BME280;11323;49.610;11.016;2023-05-22T17:53:45;97614.53;;;22.31;61.08
22311;BME280;11323;49.610;11.016;2023-05-22T17:58:46;97606.56;;;22.31;60.85
22311;BME280;11323;49.610;11.016;2023-05-22T18:03:46;97619.63;;;22.33;61.35
22311;BME280;11323;49.610;11.016;2023-05-22T18:08:46;97612.47;;;22.33;60.85
22311;BME280;11323;49.610;11.016;2023-05-22T18:13:47;97612.47;;;22.33;61.02
22311;BME280;11323;49.610;11.016;2023-05-22T18:18:47;97612.47;;;22.33;61.16
22311;BME280;11323;49.610;11.016;2023-05-22T18:23:48;97614.88;;;22.35;60.61
22311;BME280;11323;49.610;11.016;2023-05-22T18:28:48;97615.25;;;22.39;60.92
22311;BME280;11323;49.610;11.016;2023-05-22T18:33:48;97616.84;;;22.40;60.89
22311;BME280;11323;49.610;11.016;2023-05-22T18:38:49;97628.06;;;22.42;61.30
22311;BME280;11323;49.610;11.016;2023-05-22T18:43:49;97634.75;;;22.44;61.25
22311;BME280;11323;49.610;11.016;2023-05-22T18:48:50;97641.69;;;22.45;61.32
22311;BME280;11323;49.610;11.016;2023-05-22T18:53:50;97643.06;;;22.48;61.03
22311;BME280;11323;49.610;11.016;2023-05-22T18:58:50;97638.34;;;22.50;61.11
22311;BME280;11323;49.610;11.016;2023-05-22T19:03:51;97646.06;;;22.51;61.19
22311;BME280;11323;49.610;11.016;2023-05-22T19:08:51;97655.41;;;22.54;61.26
22311;BME280;11323;49.610;11.016;2023-05-22T19:13:52;97657.84;;;22.56;61.03
22311;BME280;11323;49.610;11.016;2023-05-22T19:18:53;97667.19;;;22.58;60.95
22311;BME280;11323;49.610;11.016;2023-05-22T19:23:53;97675.72;;;22.60;60.99
22311;BME280;11323;49.610;11.016;2023-05-22T19:28:54;97696.47;;;22.63;61.07
22311;BME280;11323;49.610;11.016;2023-05-22T19:33:58;97702.63;;;22.64;61.05
22311;BME280;11323;49.610;11.016;2023-05-22T19:43:58;97708.25;;;22.67;60.91
22311;BME280;11323;49.610;11.016;2023-05-22T19:48:59;97699.25;;;22.68;60.99
22311;BME280;11323;49.610;11.016;2023-05-22T19:53:59;97703.53;;;22.70;60.69
22311;BME280;11323;49.610;11.016;2023-05-22T19:59:00;97706.97;;;22.70;60.72
22311;BME280;11323;49.610;11.016;2023-05-22T20:04:00;97705.72;;;22.73;60.83
22311;BME280;11323;49.610;11.016;2023-05-22T20:09:01;97698.31;;;22.75;60.88
22311;BME280;11323;49.610;11.016;2023-05-22T20:14:02;97719.56;;;22.75;60.80
22311;BME280;11323;49.610;11.016;2023-05-22T20:19:02;97706.84;;;22.77;61.02
22311;BME280;11323;49.610;11.016;2023-05-22T20:24:08;97700.16;;;22.74;60.70
22311;BME280;11323;49.610;11.016;2023-05-22T20:29:12;97707.34;;;22.74;59.70
22311;BME280;11323;49.610;11.016;2023-05-22T20:34:12;97714.16;;;22.70;59.41
22311;BME280;11323;49.610;11.016;2023-05-22T20:39:13;97713.56;;;22.67;58.42
22311;BME280;11323;49.610;11.016;2023-05-22T20:49:15;97736.91;;;22.65;58.10
22311;BME280;11323;49.610;11.016;2023-05-22T20:54:19;97726.63;;;22.57;57.85
22311;BME280;11323;49.610;11.016;2023-05-22T20:59:20;97742.31;;;22.59;57.89
22311;BME280;11323;49.610;11.016;2023-05-22T21:04:21;97746.84;;;22.58;57.92
22311;BME280;11323;49.610;11.016;2023-05-22T21:09:21;97739.13;;;22.57;57.63
22311;BME280;11323;49.610;11.016;2023-05-22T21:14:22;97743.59;;;22.56;57.84
22311;BME280;11323;49.610;11.016;2023-05-22T21:19:22;97738.75;;;22.53;57.79
22311;BME280;11323;49.610;11.016;2023-05-22T21:24:22;97738.75;;;22.53;57.79
22311;BME280;11323;49.610;11.016;2023-05-22T21:29:23;97733.44;;;22.53;57.71
22311;BME280;11323;49.610;11.016;2023-05-22T21:34:23;97734.25;;;22.54;57.96
22311;BME280;11323;49.610;11.016;2023-05-22T21:39:24;97728.63;;;22.50;58.06
22311;BME280;11323;49.610;11.016;2023-05-22T21:44:24;97727.56;;;22.51;58.08
22311;BME280;11323;49.610;11.016;2023-05-22T21:49:24;97720.41;;;22.51;58.07
22311;BME280;11323;49.610;11.016;2023-05-22T21:54:25;97722.81;;;22.53;57.80
22311;BME280;11323;49.610;11.016;2023-05-22T21:59:25;97721.44;;;22.50;58.14
22311;BME280;11323;49.610;11.016;2023-05-22T22:04:26;97728.63;;;22.50;57.99
22311;BME280;11323;49.610;11.016;2023-05-22T22:09:26;97733.94;;;22.50;58.40
22311;BME280;11323;49.610;11.016;2023-05-22T22:14:26;97728.81;;;22.48;58.14
22311;BME280;11323;49.610;11.016;2023-05-22T22:19:26;97730.22;;;22.51;58.35
22311;BME280;11323;49.610;11.016;2023-05-22T22:24:28;97731.47;;;22.48;58.21
22311;BME280;11323;49.610;11.016;2023-05-22T22:29:28;97726.41;;;22.47;58.47
22311;BME280;11323;49.610;11.016;2023-05-22T22:34:29;97725.38;;;22.48;58.25
22311;BME280;11323;49.610;11.016;2023-05-22T22:39:30;97725.38;;;22.48;58.34
22311;BME280;11323;49.610;11.016;2023-05-22T22:44:30;97734.84;;;22.44;58.52
22311;BME280;11323;49.610;11.016;2023-05-22T22:49:31;97736.91;;;22.42;58.74
22311;BME280;11323;49.610;11.016;2023-05-22T22:54:31;97739.34;;;22.43;58.66
22311;BME280;11323;49.610;11.016;2023-05-22T22:59:32;97747.53;;;22.42;58.65
22311;BME280;11323;49.610;11.016;2023-05-22T23:04:34;97752.84;;;22.42;58.68
22311;BME280;11323;49.610;11.016;2023-05-22T23:09:35;97756.97;;;22.37;58.92
22311;BME280;11323;49.610;11.016;2023-05-22T23:14:35;97763.91;;;22.39;58.80
22311;BME280;11323;49.610;11.016;2023-05-22T23:19:36;97763.91;;;22.39;58.69
22311;BME280;11323;49.610;11.016;2023-05-22T23:24:37;97769.66;;;22.35;58.91
22311;BME280;11323;49.610;11.016;2023-05-22T23:29:37;97778.09;;;22.32;59.43
22311;BME280;11323;49.610;11.016;2023-05-22T23:34:37;97780.16;;;22.30;58.88
22311;BME280;11323;49.610;11.016;2023-05-22T23:39:38;97770.94;;;22.33;59.09
22311;BME280;11323;49.610;11.016;2023-05-22T23:44:38;97773.22;;;22.29;59.41
22311;BME280;11323;49.610;11.016;2023-05-22T23:49:38;97771.63;;;22.28;59.16
22311;BME280;11323;49.610;11.016;2023-05-22T23:54:39;97778.78;;;22.28;59.34
22311;BME280;11323;49.610;11.016;2023-05-22T23:59:39;97780.63;;;22.27;59.18
